Time;durP1;ratioP1;P1;durP2;ratioP2;P2;SDS_P1;SDS_P2;PMS_P1;PMS_P2;Temp;Humidity;BMP_temperature;BMP_pressure;BME280_temperature;BME280_humidity;BME280_pressure;Samples;Min_cycle;Max_cycle;Signal;HPM_P1;HPM_P2
2020/12/03 00:03:26;;;;;;;19.08;8.07;;;;;;;-4.66;59.83;100723.13;10499727;28;20508;-49
2020/12/03 00:08:30;;;;;;;21.45;7.47;;;;;;;-4.68;59.73;100730.00;10502739;28;20044;-50
2020/12/03 00:13:34;;;;;;;23.40;9.02;;;;;;;-4.72;59.57;100730.84;10501882;28;20147;-49
2020/12/03 00:18:37;;;;;;;18.73;7.20;;;;;;;-4.72;59.66;100733.41;10498732;28;20539;-52
2020/12/03 00:23:41;;;;;;;16.98;5.85;;;;;;;-4.75;59.62;100725.75;10497971;28;20549;-50
2020/12/03 00:28:43;;;;;;;10.13;4.68;;;;;;;-4.82;59.49;100734.34;10498205;28;20635;-51
2020/12/03 00:33:45;;;;;;;25.53;7.73;;;;;;;-4.80;59.48;100717.25;10498792;28;20048;-52
2020/12/03 00:38:48;;;;;;;17.13;7.60;;;;;;;-4.82;59.50;100724.09;10498091;28;20056;-53
2020/12/03 00:43:50;;;;;;;22.60;6.07;;;;;;;-4.88;59.44;100713.84;10497523;28;20067;-51
2020/12/03 00:48:52;;;;;;;18.20;5.87;;;;;;;-4.95;59.70;100719.91;10486255;28;20059;-52
2020/12/03 00:53:54;;;;;;;19.55;7.25;;;;;;;-4.94;59.52;100713.91;10497932;28;20132;-54
2020/12/03 00:58:57;;;;;;;21.90;7.28;;;;;;;-4.95;59.42;100710.47;10501901;28;20218;-52
2020/12/03 01:04:00;;;;;;;18.98;7.30;;;;;;;-4.96;59.07;100708.75;10498096;28;20060;-52
2020/12/03 01:09:01;;;;;;;25.65;8.57;;;;;;;-4.96;59.28;100707.91;10499203;28;20056;-50
2020/12/03 01:14:04;;;;;;;19.02;7.95;;;;;;;-4.97;59.31;100708.78;10496271;28;20449;-51
2020/12/03 01:19:06;;;;;;;20.87;8.50;;;;;;;-5.02;59.25;100705.38;10497428;28;20076;-52
2020/12/03 01:24:07;;;;;;;22.92;8.80;;;;;;;-5.13;59.50;100698.59;10495868;28;20076;-51
2020/12/03 01:29:10;;;;;;;19.40;7.93;;;;;;;-5.15;59.45;100702.88;10498226;28;20052;-50
2020/12/03 01:34:12;;;;;;;21.27;7.33;;;;;;;-5.16;59.38;100703.75;10498191;28;20044;-54
2020/12/03 01:39:13;;;;;;;26.40;8.52;;;;;;;-5.19;59.50;100701.19;10498270;28;20059;-51
2020/12/03 01:44:33;;;;;;;17.55;6.38;;;;;;;-5.17;59.52;100696.94;10509353;28;20473;-51
2020/12/03 01:49:35;;;;;;;16.10;6.18;;;;;;;-5.11;59.43;100711.41;10505345;28;20040;-51
2020/12/03 01:54:36;;;;;;;19.20;8.55;;;;;;;-5.18;59.72;100696.91;10503875;28;20060;-50
2020/12/03 01:59:41;;;;;;;22.10;7.60;;;;;;;-5.21;59.64;100692.66;10504447;28;20500;-50
2020/12/03 02:04:43;;;;;;;26.30;7.90;;;;;;;-5.27;59.67;100700.38;10505259;28;20040;-51
2020/12/03 02:09:45;;;;;;;26.55;7.53;;;;;;;-5.29;59.49;100686.75;10503728;28;20159;-52
2020/12/03 02:14:47;;;;;;;18.42;6.80;;;;;;;-5.32;59.65;100681.63;10490798;28;20478;-52
2020/12/03 02:19:55;;;;;;;15.07;5.87;;;;;;;-5.36;59.66;100678.22;10463752;28;20052;-51
2020/12/03 02:24:56;;;;;;;16.00;5.43;;;;;;;-5.40;59.84;100675.66;10461975;28;20065;-52
2020/12/03 02:29:58;;;;;;;18.55;6.93;;;;;;;-5.46;60.18;100678.25;10464152;28;20053;-50
2020/12/03 02:35:01;;;;;;;17.13;6.22;;;;;;;-5.44;59.92;100685.09;10460548;28;20041;-50
2020/12/03 02:40:04;;;;;;;22.13;7.05;;;;;;;-5.33;59.94;100679.91;10463333;28;20052;-49
2020/12/03 02:45:06;;;;;;;18.90;6.43;;;;;;;-5.17;59.78;100681.53;10502402;28;20078;-52
2020/12/03 02:50:09;;;;;;;19.40;6.75;;;;;;;-5.03;59.58;100680.63;10502781;28;20059;-52
2020/12/03 02:55:10;;;;;;;14.40;5.47;;;;;;;-5.00;59.67;100683.16;10499422;28;20136;-49
2020/12/03 03:00:12;;;;;;;24.17;7.80;;;;;;;-5.00;59.60;100666.06;10501780;28;20059;-50
2020/12/03 03:05:15;;;;;;;25.10;5.78;;;;;;;-4.90;59.12;100680.50;10501980;28;20053;-51
2020/12/03 03:10:21;;;;;;;18.00;6.95;;;;;;;-4.92;58.92;100666.03;10474276;28;20544;-49
2020/12/03 03:15:23;;;;;;;20.40;8.20;;;;;;;-5.01;59.01;100681.47;10503446;28;20051;-50
2020/12/03 03:20:25;;;;;;;18.58;6.25;;;;;;;-5.06;59.05;100694.28;10501442;28;20045;-49
2020/12/03 03:25:27;;;;;;;16.47;5.53;;;;;;;-5.15;58.93;100697.75;10503952;28;20071;-53
2020/12/03 03:30:29;;;;;;;16.15;5.57;;;;;;;-5.17;59.23;100686.69;10507564;28;20048;-49
2020/12/03 03:35:31;;;;;;;24.33;9.43;;;;;;;-5.28;59.32;100675.63;10502499;28;20059;-51
2020/12/03 03:40:33;;;;;;;15.80;7.50;;;;;;;-5.33;59.39;100678.22;10501869;28;20040;-50
2020/12/03 03:45:35;;;;;;;23.73;6.65;;;;;;;-5.30;59.33;100684.16;10501822;28;20049;-50
2020/12/03 03:50:37;;;;;;;19.60;6.80;;;;;;;-5.19;59.23;100688.38;10499256;28;20118;-50
2020/12/03 03:55:39;;;;;;;8.27;3.10;;;;;;;-5.05;59.18;100682.31;10499617;28;20087;-51
2020/12/03 04:00:43;;;;;;;20.23;6.88;;;;;;;-5.03;59.10;100693.44;10500889;28;20067;-52
2020/12/03 04:05:46;;;;;;;;;;;;;;;-4.96;59.05;100684.84;10499431;28;20152;-51
2020/12/03 04:10:49;;;;;;;19.10;6.55;;;;;;;-4.97;58.86;100673.72;10498882;28;19967;-52
2020/12/03 04:15:52;;;;;;;18.67;8.18;;;;;;;-4.99;59.04;100679.72;10498566;28;20452;-49
2020/12/03 04:20:57;;;;;;;24.67;7.80;;;;;;;-4.99;59.04;100669.47;10498369;28;20037;-52
2020/12/03 04:25:58;;;;;;;17.27;6.10;;;;;;;-4.97;59.18;100668.59;10499948;28;20106;-52
2020/12/03 04:31:00;;;;;;;9.80;3.60;;;;;;;-4.99;59.19;100677.16;10498104;28;20062;-52
2020/12/03 04:36:03;;;;;;;11.93;4.85;;;;;;;-4.96;58.74;100664.31;10498813;28;20072;-52
2020/12/03 04:41:05;;;;;;;10.65;4.47;;;;;;;-4.97;59.21;100660.91;10497199;28;20044;-50
2020/12/03 04:46:23;;;;;;;14.02;5.90;;;;;;;-4.93;59.00;100672.00;10499233;28;20052;-52
2020/12/03 04:51:42;;;;;;;15.48;6.32;;;;;;;-4.86;59.13;100668.53;10498232;28;20047;-50
2020/12/03 04:56:52;;;;;;;12.40;3.60;;;;;;;-4.80;58.60;100659.94;10497499;28;20143;-52
2020/12/03 05:02:20;;;;;;;20.30;7.40;;;;;;;-4.79;58.83;100659.09;10497143;28;20040;-51
2020/12/03 05:07:28;;;;;;;14.75;5.32;;;;;;;-4.73;58.83;100662.47;10498735;28;20052;-51
2020/12/03 05:12:36;;;;;;;24.50;9.02;;;;;;;-4.82;58.57;100652.25;10498724;28;20059;-53
2020/12/03 05:17:56;;;;;;;6.80;2.30;;;;;;;-4.95;58.75;100661.75;10497137;28;20123;-52
2020/12/03 05:23:05;;;;;;;17.13;5.38;;;;;;;-4.93;58.54;100659.16;10496497;28;20048;-50
2020/12/03 05:28:28;;;;;;;19.80;7.85;;;;;;;-4.98;58.41;100642.97;10496212;28;20082;-50
2020/12/03 05:33:29;;;;;;;19.92;7.80;;;;;;;-5.00;58.58;100645.53;10497532;28;20377;-53
2020/12/03 05:38:32;;;;;;;8.43;3.70;;;;;;;-5.02;58.49;100651.53;10497225;28;20045;-52
2020/12/03 05:43:34;;;;;;;15.30;7.10;;;;;;;-5.02;58.22;100646.41;10495190;28;20496;-51
2020/12/03 05:48:35;;;;;;;19.52;7.30;;;;;;;-4.91;58.93;100653.19;10496134;28;20052;-49
2020/12/03 05:53:52;;;;;;;24.55;9.13;;;;;;;-4.89;58.77;100640.34;10496266;28;20048;-49
2020/12/03 05:58:53;;;;;;;22.25;8.23;;;;;;;-4.91;58.10;100645.47;10497503;28;20044;-51
2020/12/03 06:04:07;;;;;;;18.20;5.93;;;;;;;-4.88;58.68;100652.31;10497054;28;20044;-51
2020/12/03 06:09:26;;;;;;;23.40;9.43;;;;;;;-4.74;58.38;100657.31;10495237;28;20552;-52
2020/12/03 06:14:58;;;;;;;25.85;9.18;;;;;;;-4.21;58.49;100656.88;10496379;28;20139;-51
2020/12/03 06:20:17;;;;;;;19.30;6.10;;;;;;;-4.23;57.50;100665.47;10495688;28;20111;-52
2020/12/03 06:25:36;;;;;;;17.00;6.25;;;;;;;-4.51;57.29;100647.75;10496130;28;20044;-49
2020/12/03 06:30:43;;;;;;;22.77;7.43;;;;;;;-4.43;57.30;100665.66;10503099;28;20052;-53
2020/12/03 06:35:54;;;;;;;16.55;5.93;;;;;;;-4.15;57.62;100673.97;10502857;28;20048;-50
2020/12/03 06:41:17;;;;;;;18.25;4.63;;;;;;;-4.02;56.84;100672.13;10502254;28;20052;-50
2020/12/03 06:47:08;;;;;;;13.43;3.93;;;;;;;-4.05;56.45;100672.16;10503961;28;20045;-49
2020/12/03 06:52:37;;;;;;;27.35;9.80;;;;;;;-3.97;56.53;100685.78;10471264;28;20295;-52
2020/12/03 06:58:07;;;;;;;8.45;3.40;;;;;;;-3.94;56.67;100680.59;10462170;28;20068;-51
2020/12/03 07:03:44;;;;;;;18.67;6.53;;;;;;;-4.09;56.30;100686.75;10460072;28;20409;-52
2020/12/03 07:09:35;;;;;;;24.88;9.90;;;;;;;-3.92;56.80;100663.44;10469147;28;20060;-49
2020/12/03 07:15:21;;;;;;;20.67;8.73;;;;;;;-3.53;56.64;100671.59;10491200;28;20049;-51
2020/12/03 07:20:49;;;;;;;21.90;6.75;;;;;;;-3.32;56.55;100678.19;10481528;28;20080;-50
2020/12/03 07:25:51;;;;;;;19.35;8.48;;;;;;;-3.28;56.20;100672.97;10502293;28;20076;-52
2020/12/03 07:30:55;;;;;;;21.13;9.35;;;;;;;-3.18;56.46;100675.41;10503034;28;20067;-49
2020/12/03 07:36:24;;;;;;;33.20;10.30;;;;;;;-3.02;56.69;100664.03;10502474;28;20059;-60
2020/12/03 07:41:29;;;;;;;25.35;9.25;;;;;;;-2.89;56.29;100665.59;10501751;28;20048;-49
2020/12/03 07:46:37;;;;;;;22.80;7.65;;;;;;;-2.73;56.49;100665.34;10500964;28;20048;-56
2020/12/03 07:51:39;;;;;;;20.80;8.15;;;;;;;-2.63;56.53;100662.59;10499447;28;20040;-49
2020/12/03 07:56:43;;;;;;;22.05;9.15;;;;;;;-2.58;56.51;100675.41;10500389;28;20067;-51
2020/12/03 08:01:46;;;;;;;22.33;7.72;;;;;;;-2.48;56.34;100679.53;10499579;28;20059;-50
2020/12/03 08:07:30;;;;;;;27.23;10.55;;;;;;;-2.52;56.21;100675.31;10497627;28;20045;-51
2020/12/03 08:12:32;;;;;;;22.73;9.25;;;;;;;-2.60;56.47;100678.00;10489672;28;20053;-51
2020/12/03 08:17:47;;;;;;;23.52;8.68;;;;;;;-2.55;55.99;100681.38;10498871;28;20048;-53
2020/12/03 08:22:53;;;;;;;23.65;8.80;;;;;;;-2.62;55.69;100668.59;10498466;28;20048;-51
2020/12/03 08:28:01;;;;;;;20.73;7.13;;;;;;;-2.57;55.90;100666.81;10497983;28;20079;-50
2020/12/03 08:33:10;;;;;;;22.55;9.63;;;;;;;-2.59;55.80;100663.41;10498656;28;20173;-49
2020/12/03 08:38:13;;;;;;;25.15;8.98;;;;;;;-2.37;55.93;100657.03;10497958;28;20048;-49
2020/12/03 08:43:17;;;;;;;23.83;7.00;;;;;;;-2.47;55.18;100662.34;10498881;28;20464;-49
2020/12/03 08:48:25;;;;;;;21.02;7.78;;;;;;;-2.44;55.37;100659.72;10498341;28;20147;-51
2020/12/03 08:53:29;;;;;;;14.82;6.05;;;;;;;-2.21;54.96;100669.66;10497294;28;20486;-50
2020/12/03 08:58:31;;;;;;;24.30;9.00;;;;;;;-2.36;55.01;100656.16;10497481;28;20389;-53
2020/12/03 09:03:34;;;;;;;26.27;8.43;;;;;;;-2.14;55.06;100658.38;10497878;28;20489;-54
2020/12/03 09:08:36;;;;;;;19.90;6.75;;;;;;;-2.04;54.95;100653.88;10497912;28;20067;-51
2020/12/03 09:13:39;;;;;;;19.38;8.07;;;;;;;-2.02;55.13;100658.13;10497250;28;20507;-49
2020/12/03 09:18:42;;;;;;;22.40;8.70;;;;;;;-2.01;55.11;100641.78;10495771;28;20439;-50
2020/12/03 09:23:48;;;;;;;24.37;8.70;;;;;;;-1.96;55.37;100634.84;10496241;28;20176;-51
2020/12/03 09:28:50;;;;;;;22.35;8.15;;;;;;;-1.73;55.27;100636.13;10496729;28;20466;-49
2020/12/03 09:33:53;;;;;;;24.02;11.10;;;;;;;-1.52;55.07;100635.69;10496463;28;20048;-50
2020/12/03 09:38:58;;;;;;;19.63;6.95;;;;;;;-1.40;54.30;100634.59;10496761;28;20503;-50
2020/12/03 09:44:05;;;;;;;18.83;8.20;;;;;;;-1.55;54.25;100630.59;10496360;28;20474;-52
2020/12/03 09:49:12;;;;;;;23.55;8.95;;;;;;;-1.59;54.48;100623.81;10495774;28;20051;-52
2020/12/03 09:54:14;;;;;;;21.52;6.95;;;;;;;-1.56;54.61;100621.16;10497464;28;20064;-52
2020/12/03 09:59:15;;;;;;;18.13;7.65;;;;;;;-1.63;54.52;100620.44;10495258;28;20044;-50
2020/12/03 10:04:40;;;;;;;19.77;7.43;;;;;;;-1.53;54.85;100617.69;10502112;28;20051;-51
2020/12/03 10:09:50;;;;;;;;;;;;;;;-1.35;54.80;100600.97;10504743;28;20055;-51
2020/12/03 10:15:14;;;;;;;23.38;7.80;;;;;;;-1.18;54.14;100611.75;10504547;28;20506;-50
2020/12/03 10:20:17;;;;;;;24.58;8.60;;;;;;;-1.29;54.38;100603.38;10503733;28;20048;-50
2020/12/03 10:25:21;;;;;;;17.60;6.95;;;;;;;-1.40;54.42;100607.06;10503217;28;20054;-50
2020/12/03 10:30:33;;;;;;;17.48;7.15;;;;;;;-1.23;54.30;100618.72;10503399;28;20131;-52
2020/12/03 10:35:42;;;;;;;19.38;8.15;;;;;;;-1.16;53.95;100613.41;10502153;28;20045;-49
2020/12/03 10:40:44;;;;;;;16.10;6.72;;;;;;;-1.27;53.78;100607.63;10503857;28;20041;-50
2020/12/03 10:45:49;;;;;;;16.33;6.57;;;;;;;-1.27;54.04;100596.47;10502372;28;20075;-54
2020/12/03 10:50:54;;;;;;;22.27;7.60;;;;;;;-1.18;54.36;100598.84;10502517;28;20058;-50
2020/12/03 10:56:00;;;;;;;25.17;9.50;;;;;;;-1.04;54.20;100591.66;10501954;28;20059;-51
2020/12/03 11:01:07;;;;;;;17.92;6.03;;;;;;;-0.91;53.86;100599.94;10502324;28;20143;-49
2020/12/03 11:06:10;;;;;;;18.27;7.93;;;;;;;-1.06;53.57;100595.13;10503051;28;20382;-51
2020/12/03 11:11:12;;;;;;;20.83;7.65;;;;;;;-1.01;53.43;100594.16;10502011;28;20067;-50
2020/12/03 11:16:17;;;;;;;22.67;8.50;;;;;;;-0.94;53.48;100579.38;10500846;28;20485;-49
2020/12/03 11:21:24;;;;;;;15.13;5.82;;;;;;;-0.90;52.89;100586.13;10500206;28;20470;-51
2020/12/03 11:26:29;;;;;;;23.80;8.80;;;;;;;-0.95;53.35;100581.09;10501324;28;20135;-50
2020/12/03 11:31:32;;;;;;;21.35;7.55;;;;;;;-0.82;53.38;100580.81;10501956;28;20469;-56
2020/12/03 11:36:37;;;;;;;21.55;6.35;;;;;;;-0.94;53.38;100577.63;10500129;28;20064;-52
2020/12/03 11:41:53;;;;;;;18.40;7.30;;;;;;;-1.07;53.19;100567.66;10500991;28;20044;-50
2020/12/03 11:52:16;;;;;;;18.05;8.15;;;;;;;-1.12;52.48;100566.91;10500708;28;20036;-49
2020/12/03 11:57:22;;;;;;;21.75;8.13;;;;;;;-1.10;52.77;100560.81;10497946;28;20075;-50
2020/12/03 12:02:23;;;;;;;16.30;6.50;;;;;;;-1.14;52.36;100582.41;10498730;28;20078;-52
2020/12/03 12:07:33;;;;;;;15.07;6.80;;;;;;;-1.23;52.66;100590.34;10499340;28;20484;-50
2020/12/03 12:12:35;;;;;;;19.65;8.77;;;;;;;-1.28;52.99;100571.56;10497966;28;20532;-49
2020/12/03 12:17:37;;;;;;;22.25;7.65;;;;;;;-1.32;52.43;100575.09;10499134;28;20101;-51
2020/12/03 12:22:40;;;;;;;26.48;8.98;;;;;;;-1.32;52.54;100564.78;10498403;28;20049;-51
2020/12/03 12:27:42;;;;;;;14.10;5.90;;;;;;;-1.32;52.23;100575.94;10502264;28;20484;-52
2020/12/03 12:32:43;;;;;;;16.92;7.20;;;;;;;-1.31;52.38;100567.31;10503925;28;20054;-54
2020/12/03 12:37:46;;;;;;;11.23;4.18;;;;;;;-1.34;52.51;100572.53;10504156;28;20062;-52
2020/12/03 12:42:48;;;;;;;20.27;7.53;;;;;;;-1.36;52.37;100560.56;10498062;28;20047;-49
2020/12/03 12:47:49;;;;;;;22.15;7.20;;;;;;;-1.35;52.11;100564.84;10496711;28;20401;-52
2020/12/03 12:52:52;;;;;;;17.38;6.47;;;;;;;-1.42;51.80;100559.84;10497729;28;20134;-49
2020/12/03 12:57:53;;;;;;;10.02;4.85;;;;;;;-1.49;52.22;100565.16;10498704;28;20066;-57
2020/12/03 13:02:55;;;;;;;19.70;6.47;;;;;;;-1.60;52.25;100557.66;10498759;28;20393;-50
2020/12/03 13:07:58;;;;;;;18.15;6.72;;;;;;;-1.61;52.35;100568.84;10498010;28;20056;-51
2020/12/03 13:12:59;;;;;;;19.33;8.98;;;;;;;-1.60;52.48;100565.41;10496768;28;20041;-50
2020/12/03 13:18:01;;;;;;;21.70;7.60;;;;;;;-1.59;52.13;100553.34;10496708;28;20052;-50
2020/12/03 13:23:04;;;;;;;21.65;8.20;;;;;;;-1.50;52.30;100558.31;10497496;28;20051;-50
2020/12/03 13:28:05;;;;;;;17.20;5.00;;;;;;;-1.39;52.27;100564.03;10497455;28;20053;-50
2020/12/03 13:33:07;;;;;;;18.33;7.47;;;;;;;-1.35;52.42;100557.13;10498021;28;20055;-50
2020/12/03 13:38:09;;;;;;;12.77;4.65;;;;;;;-1.36;52.29;100561.41;10502032;28;20053;-51
2020/12/03 13:43:11;;;;;;;18.45;5.72;;;;;;;-1.35;51.79;100557.13;10505069;28;20459;-49
2020/12/03 13:48:13;;;;;;;17.80;7.50;;;;;;;-1.38;52.25;100559.75;10505410;28;20064;-51
2020/12/03 13:53:16;;;;;;;20.45;7.60;;;;;;;-1.46;51.76;100565.91;10504862;28;20381;-50
2020/12/03 13:58:17;;;;;;;18.30;6.88;;;;;;;-1.53;51.89;100551.47;10504150;28;20462;-50
2020/12/03 14:03:19;;;;;;;17.10;6.05;;;;;;;-1.49;52.26;100558.25;10504596;28;20051;-50
2020/12/03 14:08:23;;;;;;;13.93;4.57;;;;;;;-1.56;51.76;100561.00;10504261;28;20040;-52
2020/12/03 14:13:26;;;;;;;14.87;6.43;;;;;;;-1.66;51.89;100544.91;10504740;28;20040;-52
2020/12/03 14:18:27;;;;;;;17.83;7.18;;;;;;;-1.72;51.50;100537.28;10503094;28;20438;-52
2020/12/03 14:23:30;;;;;;;20.98;7.55;;;;;;;-1.81;51.56;100550.38;10494479;28;20060;-50
2020/12/03 14:28:32;;;;;;;13.25;6.43;;;;;;;-1.78;51.51;100551.16;10462763;28;20049;-53
2020/12/03 14:33:34;;;;;;;15.38;6.28;;;;;;;-1.79;51.52;100535.72;10461537;28;20453;-51
2020/12/03 14:38:36;;;;;;;13.35;5.75;;;;;;;-1.78;51.26;100530.53;10461038;28;20045;-51
2020/12/03 14:43:38;;;;;;;13.45;5.43;;;;;;;-1.78;51.34;100535.69;10493419;28;20067;-50
2020/12/03 14:48:39;;;;;;;19.25;6.32;;;;;;;-1.80;51.10;100531.44;10501824;28;20048;-52
2020/12/03 14:53:42;;;;;;;11.32;4.25;;;;;;;-1.80;51.00;100531.44;10502380;28;20063;-52
2020/12/03 14:58:44;;;;;;;13.57;5.28;;;;;;;-1.84;50.75;100525.50;10504172;28;20098;-50
2020/12/03 15:03:45;;;;;;;16.85;7.00;;;;;;;-1.79;50.97;100548.59;10503875;28;20250;-54
2020/12/03 15:08:52;;;;;;;16.50;6.05;;;;;;;-1.74;50.80;100528.75;10503451;28;20048;-52
2020/12/03 15:13:54;;;;;;;16.50;6.78;;;;;;;-1.74;50.51;100526.16;10504004;28;20385;-58
2020/12/03 15:18:56;;;;;;;13.98;5.50;;;;;;;-1.75;50.04;100545.94;10503184;28;20044;-51
2020/12/03 15:23:59;;;;;;;13.93;6.28;;;;;;;-1.81;50.13;100514.28;10502457;28;20044;-52
2020/12/03 15:29:01;;;;;;;15.98;6.63;;;;;;;-1.81;50.16;100525.44;10501253;28;20452;-50
2020/12/03 15:34:02;;;;;;;12.80;5.78;;;;;;;-1.83;50.42;100537.50;10501927;28;20044;-50
2020/12/03 15:39:05;;;;;;;15.98;5.75;;;;;;;-1.82;50.37;100551.25;10501131;28;20052;-50
2020/12/03 15:44:07;;;;;;;10.38;4.18;;;;;;;-1.80;50.33;100531.44;10500857;28;20392;-52
2020/12/03 15:49:08;;;;;;;18.23;6.63;;;;;;;-1.82;50.07;100528.03;10500232;28;20055;-50
2020/12/03 15:54:11;;;;;;;14.18;5.65;;;;;;;-1.76;49.98;100522.75;10494924;28;20484;-50
2020/12/03 15:59:12;;;;;;;16.15;5.30;;;;;;;-1.77;50.09;100524.50;10456366;28;20063;-50
2020/12/03 16:04:15;;;;;;;15.38;6.13;;;;;;;-1.74;50.23;100515.84;10458432;28;20045;-52
2020/12/03 16:09:17;;;;;;;8.98;3.58;;;;;;;-1.64;50.31;100527.66;10500276;28;20054;-55
2020/12/03 16:14:19;;;;;;;11.57;3.20;;;;;;;-1.63;49.78;100524.22;10499302;28;20106;-50
2020/12/03 16:19:21;;;;;;;32.08;6.15;;;;;;;-1.63;50.30;100519.91;10500376;28;20049;-53
2020/12/03 16:24:23;;;;;;;18.05;7.80;;;;;;;-1.55;50.12;100511.97;10500347;28;20052;-50
2020/12/03 16:29:25;;;;;;;20.30;7.85;;;;;;;-1.50;49.76;100510.16;10499198;28;20048;-50
2020/12/03 16:34:27;;;;;;;10.68;5.47;;;;;;;-1.43;49.63;100505.69;10498321;28;20538;-50
2020/12/03 16:39:30;;;;;;;21.15;7.10;;;;;;;-1.50;49.71;100501.56;10498607;28;20048;-50
2020/12/03 16:44:32;;;;;;;13.32;6.32;;;;;;;-1.60;49.71;100508.66;10497737;28;20048;-52
2020/12/03 16:49:33;;;;;;;11.88;2.55;;;;;;;-1.70;49.65;100512.31;10496590;28;20052;-50
2020/12/03 16:54:36;;;;;;;7.95;3.53;;;;;;;-1.75;49.76;100520.16;10499200;28;20060;-52
2020/12/03 16:59:38;;;;;;;9.67;3.97;;;;;;;-1.68;50.23;100518.28;10499106;28;20044;-52
2020/12/03 17:04:39;;;;;;;21.42;7.72;;;;;;;-1.63;49.88;100508.75;10498400;28;20044;-50
2020/12/03 17:09:42;;;;;;;15.45;5.65;;;;;;;-1.58;50.35;100501.72;10497505;28;20048;-50
2020/12/03 17:14:44;;;;;;;9.68;3.80;;;;;;;-1.62;50.20;100510.44;10496707;28;20040;-51
2020/12/03 17:19:45;;;;;;;18.48;7.22;;;;;;;-1.65;50.13;100500.19;10498560;28;20090;-50
2020/12/03 17:24:48;;;;;;;15.25;5.85;;;;;;;-1.51;49.93;100493.00;10496126;28;20481;-50
2020/12/03 17:29:50;;;;;;;12.90;6.35;;;;;;;-1.40;50.38;100496.16;10497064;28;20048;-50
2020/12/03 17:34:51;;;;;;;15.23;6.25;;;;;;;-1.27;49.80;100494.13;10460462;28;20053;-50
2020/12/03 17:39:54;;;;;;;14.00;5.07;;;;;;;-1.14;50.10;100507.56;10457472;28;20064;-52
2020/12/03 17:44:59;;;;;;;14.50;5.65;;;;;;;-1.12;50.26;100504.97;10497637;28;20051;-52
2020/12/03 17:50:00;;;;;;;20.98;5.97;;;;;;;-1.17;49.88;100505.94;10496829;28;20146;-52
2020/12/03 17:55:04;;;;;;;12.52;4.53;;;;;;;-1.12;50.35;100516.13;10496233;28;20065;-53
2020/12/03 18:00:06;;;;;;;13.55;5.57;;;;;;;-1.08;50.15;100512.59;10497712;28;20051;-53
2020/12/03 18:05:08;;;;;;;18.00;6.28;;;;;;;-0.95;49.88;100514.00;10498476;28;20136;-52
2020/12/03 18:10:10;;;;;;;20.52;6.60;;;;;;;-0.94;49.88;100510.53;10498640;28;20491;-51
2020/12/03 18:15:12;;;;;;;14.38;4.90;;;;;;;-1.01;50.09;100510.72;10500492;28;20400;-52
2020/12/03 18:20:14;;;;;;;29.33;6.57;;;;;;;-0.90;50.12;100511.28;10495562;28;20075;-49
2020/12/03 18:25:16;;;;;;;20.30;7.53;;;;;;;-0.95;50.67;100508.84;10501151;28;20048;-51
2020/12/03 18:30:18;;;;;;;19.73;6.20;;;;;;;-0.96;50.65;100517.44;10504701;28;20082;-50
2020/12/03 18:35:20;;;;;;;19.27;7.07;;;;;;;-0.93;50.73;100517.38;10502952;28;20087;-52
2020/12/03 18:40:23;;;;;;;20.00;7.20;;;;;;;-1.11;51.33;100517.81;10503493;28;20136;-52
2020/12/03 18:45:24;;;;;;;24.77;8.13;;;;;;;-1.17;51.87;100524.00;10502813;28;20052;-50
2020/12/03 18:50:26;;;;;;;19.25;6.70;;;;;;;-1.17;52.19;100521.41;10502657;28;20055;-50
2020/12/03 18:55:29;;;;;;;28.55;8.95;;;;;;;-1.08;52.47;100527.22;10502360;28;20442;-52
2020/12/03 19:00:31;;;;;;;15.63;6.13;;;;;;;-1.03;52.68;100531.41;10501685;28;20139;-53
2020/12/03 19:05:36;;;;;;;21.60;7.20;;;;;;;-0.96;52.68;100535.50;10504264;28;20377;-57
2020/12/03 19:10:40;;;;;;;22.90;8.57;;;;;;;-1.01;53.21;100536.53;10502322;28;20053;-50
2020/12/03 19:15:41;;;;;;;21.75;8.18;;;;;;;-1.08;53.58;100533.22;10501875;28;20052;-52
2020/12/03 19:20:43;;;;;;;23.95;8.43;;;;;;;-0.95;53.58;100524.31;10501282;28;20560;-50
2020/12/03 19:25:46;;;;;;;26.30;8.18;;;;;;;-0.86;53.97;100527.53;10502064;28;20048;-51
2020/12/03 19:30:47;;;;;;;26.30;8.60;;;;;;;-0.91;53.72;100535.41;10500306;28;20492;-52
2020/12/03 19:35:49;;;;;;;26.83;11.13;;;;;;;-0.98;54.32;100539.88;10498878;28;20040;-52
2020/12/03 19:40:52;;;;;;;20.02;7.95;;;;;;;-1.01;54.59;100539.97;10501958;28;20048;-51
2020/12/03 19:45:53;;;;;;;26.33;9.82;;;;;;;-1.05;54.81;100538.31;10500609;28;20057;-51
2020/12/03 19:50:55;;;;;;;27.50;8.45;;;;;;;-0.95;54.78;100521.75;10501140;28;20048;-50
2020/12/03 19:55:57;;;;;;;18.35;6.53;;;;;;;-0.95;54.65;100529.47;10505001;28;20079;-51
2020/12/03 20:00:59;;;;;;;14.70;6.32;;;;;;;-0.93;55.17;100532.84;10499599;28;20135;-50
2020/12/03 20:06:01;;;;;;;19.17;7.05;;;;;;;-0.93;55.33;100532.00;10501618;28;20068;-51
2020/12/03 20:11:03;;;;;;;21.08;7.97;;;;;;;-0.91;55.42;100539.72;10499890;28;20112;-52
2020/12/03 20:16:05;;;;;;;21.63;8.55;;;;;;;-0.80;55.40;100542.88;10498335;28;20048;-51
2020/12/03 20:21:07;;;;;;;15.07;6.25;;;;;;;-0.79;55.38;100542.00;10498545;28;20139;-52
2020/12/03 20:26:09;;;;;;;19.67;9.32;;;;;;;-0.73;55.57;100549.59;10457511;28;20083;-50
2020/12/03 20:31:11;;;;;;;19.13;8.27;;;;;;;-0.62;55.27;100542.41;10457083;28;20053;-54
2020/12/03 20:36:17;;;;;;;10.15;4.18;;;;;;;-0.72;55.90;100540.97;10456559;28;20569;-52
2020/12/03 20:41:22;;;;;;;19.90;7.22;;;;;;;-0.75;55.78;100543.63;10467465;28;20080;-50
2020/12/03 20:46:24;;;;;;;16.92;6.22;;;;;;;-0.68;55.88;100526.22;10456282;28;20044;-51
2020/12/03 20:51:26;;;;;;;30.52;8.20;;;;;;;-0.67;55.46;100533.94;10458914;28;20041;-53
2020/12/03 20:56:28;;;;;;;19.42;7.80;;;;;;;-0.64;55.51;100525.28;10455565;28;20456;-52
2020/12/03 21:01:30;;;;;;;20.50;7.00;;;;;;;-0.65;55.54;100541.66;10455572;28;20139;-53
2020/12/03 21:06:32;;;;;;;31.88;8.57;;;;;;;-0.76;55.75;100540.19;10476186;28;20157;-52
2020/12/03 21:11:35;;;;;;;28.73;8.32;;;;;;;-0.96;56.02;100548.41;10497371;28;20048;-52
2020/12/03 21:16:37;;;;;;;33.15;9.40;;;;;;;-1.01;56.12;100533.94;10498122;28;20045;-51
2020/12/03 21:21:38;;;;;;;17.95;7.82;;;;;;;-1.00;56.27;100539.06;10496485;28;20055;-50
2020/12/03 21:26:41;;;;;;;25.33;8.23;;;;;;;-1.05;56.17;100535.72;10497722;28;20048;-50
2020/12/03 21:31:43;;;;;;;23.38;7.30;;;;;;;-1.12;56.29;100541.09;10498777;28;20052;-53
2020/12/03 21:36:44;;;;;;;19.80;6.47;;;;;;;-1.21;56.66;100526.66;10497941;28;20060;-52
2020/12/03 21:41:49;;;;;;;23.27;8.77;;;;;;;-1.20;56.64;100523.19;10496087;28;20052;-52
2020/12/03 21:46:51;;;;;;;22.55;7.80;;;;;;;-1.03;56.44;100527.97;10495653;28;20040;-52
2020/12/03 21:51:53;;;;;;;20.17;7.38;;;;;;;-0.99;56.65;100527.84;10497100;28;20063;-52
2020/12/03 21:56:55;;;;;;;15.25;6.65;;;;;;;-1.02;56.69;100522.75;10498200;28;20048;-50
2020/12/03 22:01:57;;;;;;;16.02;6.50;;;;;;;-1.04;57.25;100527.13;10505886;28;20052;-52
2020/12/03 22:06:59;;;;;;;17.10;6.00;;;;;;;-1.05;56.79;100522.84;10503207;28;20052;-53
2020/12/03 22:12:01;;;;;;;27.50;8.90;;;;;;;-1.08;56.85;100517.75;10503293;28;20055;-53
2020/12/03 22:17:03;;;;;;;18.95;6.55;;;;;;;-1.03;56.80;100521.06;10503671;28;20139;-51
2020/12/03 22:22:07;;;;;;;13.85;6.25;;;;;;;-0.95;56.71;100498.50;10503629;28;20049;-52
2020/12/03 22:27:10;;;;;;;17.23;6.65;;;;;;;-0.97;56.72;100505.44;10503517;28;20182;-49
2020/12/03 22:32:12;;;;;;;17.50;6.77;;;;;;;-1.04;57.04;100503.91;10502538;28;20068;-58
2020/12/03 22:37:13;;;;;;;15.55;5.93;;;;;;;-1.09;56.93;100498.00;10502301;28;20048;-50
2020/12/03 22:42:17;;;;;;;13.48;5.20;;;;;;;-1.18;56.72;100495.63;10501893;28;20397;-50
2020/12/03 22:47:18;;;;;;;14.57;5.40;;;;;;;-1.24;57.20;100500.94;10503993;28;20139;-52
2020/12/03 22:52:20;;;;;;;15.38;5.95;;;;;;;-1.29;57.14;100488.19;10501706;28;20052;-50
2020/12/03 22:57:26;;;;;;;16.25;6.30;;;;;;;-1.26;56.95;100494.97;10502251;28;20064;-53
2020/12/03 23:02:27;;;;;;;15.35;4.97;;;;;;;-1.27;57.03;100493.28;10506625;28;20052;-52
2020/12/03 23:07:29;;;;;;;17.42;5.85;;;;;;;-1.25;56.98;100478.63;10502765;28;20048;-51
2020/12/03 23:12:31;;;;;;;17.15;7.15;;;;;;;-1.28;57.01;100496.75;10503388;28;20052;-52